Terminal Aerodrome Forecast
Issued by NWS Los Angeles, CA

Home | Current Version | Previous Version | Text Only | Print | Product List | Glossary On
Versions: 1 2 3 4 5 6 7 8 9 10 11 12 13 14 15 16 17 18 19 20 21 22 23 24 25 26 27 28 29 30 31 32 33
000
FTUS46 KLOX 191735
TAFSMX
TAF
KSMX 191735Z 1918/2018 32008KT P6SM SKC
     FM191900 32015G22KT P6SM SKC
     FM192200 30018G28KT P6SM SKC
     FM200300 30015KT P6SM SKC
     FM201000 30006KT P6SM SKC=

USA.gov is the U.S. government's official web portal to all federal, state and local government web resources and services.